Time;durP1;ratioP1;P1;durP2;ratioP2;P2;SDS_P1;SDS_P2;PMS_P1;PMS_P2;Temp;Humidity;BMP_temperature;BMP_pressure;BME280_temperature;BME280_humidity;BME280_pressure;Samples;Min_cycle;Max_cycle;Signal;HPM_P1;HPM_P2
2023/05/06 00:01:00;;;;;;;;;;;11.50;99.90;;;;;;5066026;28;19963;-89
2023/05/06 00:03:25;;;;;;;;;;;11.40;99.90;;;;;;5060467;28;20529;-88
2023/05/06 00:05:51;;;;;;;;;;;11.30;99.90;;;;;;5074701;28;19931;-88
2023/05/06 00:08:16;;;;;;;;;;;11.10;99.90;;;;;;5052292;28;19935;-88
2023/05/06 00:10:42;;;;;;;;;;;11.00;99.90;;;;;;5062890;28;20448;-88
2023/05/06 00:13:08;;;;;;;;;;;11.00;99.90;;;;;;5069393;28;19930;-88
2023/05/06 00:15:34;;;;;;;;;;;10.80;99.90;;;;;;5064133;28;19924;-87
2023/05/06 00:18:00;;;;;;;;;;;10.70;99.90;;;;;;5057703;28;19969;-87
2023/05/06 00:20:26;;;;;;;;;;;10.60;99.90;;;;;;5072787;28;19981;-87
2023/05/06 00:22:51;;;;;;;;;;;10.60;99.90;;;;;;5074844;28;19924;-87
2023/05/06 00:25:17;;;;;;;;;;;10.50;99.90;;;;;;5050774;28;19973;-87
2023/05/06 00:27:43;;;;;;;;;;;10.40;99.90;;;;;;5063829;28;20019;-87
2023/05/06 00:30:09;;;;;;;;;;;10.40;99.90;;;;;;5048735;28;20136;-87
2023/05/06 00:32:34;;;;;;;;;;;10.30;99.90;;;;;;5055484;28;20051;-88
2023/05/06 00:35:00;;;;;;;;;;;10.30;99.90;;;;;;5070662;28;19921;-88
2023/05/06 00:37:26;;;;;;;;;;;10.30;99.90;;;;;;5088431;28;19946;-87
2023/05/06 00:39:51;;;;;;;;;;;10.20;99.90;;;;;;5069837;28;19931;-88
2023/05/06 00:42:17;;;;;;;;;;;10.20;99.90;;;;;;5086512;28;19981;-88
2023/05/06 00:44:42;;;;;;;;;;;10.20;99.90;;;;;;5051292;28;19994;-87
2023/05/06 00:47:08;;;;;;;;;;;10.20;99.90;;;;;;5059893;28;19924;-87
2023/05/06 00:49:34;;;;;;;;;;;10.20;99.90;;;;;;5068826;28;20321;-87
2023/05/06 00:52:00;;;;;;;;;;;10.20;99.90;;;;;;5085598;28;20428;-87
2023/05/06 00:54:26;;;;;;;;;;;10.20;99.90;;;;;;5033535;28;19947;-87
2023/05/06 00:56:51;;;;;;;;;;;10.20;99.90;;;;;;5076281;28;20032;-87
2023/05/06 00:59:17;;;;;;;;;;;10.20;99.90;;;;;;5067139;28;19955;-86
2023/05/06 01:01:43;;;;;;;;;;;10.20;99.90;;;;;;5057174;28;19936;-87
2023/05/06 01:04:09;;;;;;;;;;;10.20;99.90;;;;;;5047905;28;19921;-86
2023/05/06 01:06:40;;;;;;;;;;;10.10;99.90;;;;;;5057846;28;20021;-87
2023/05/06 01:09:18;;;;;;;;;;;10.00;99.90;;;;;;5085168;28;20033;-87
2023/05/06 01:11:44;;;;;;;;;;;9.90;99.90;;;;;;5068912;28;19928;-87
2023/05/06 01:14:13;;;;;;;;;;;9.90;99.90;;;;;;5050627;28;19920;-87
2023/05/06 01:16:39;;;;;;;;;;;10.00;99.90;;;;;;5050317;28;19928;-87
2023/05/06 01:19:07;;;;;;;;;;;10.10;99.90;;;;;;5066342;28;19932;-86
2023/05/06 01:21:33;;;;;;;;;;;10.20;99.90;;;;;;5056425;28;19924;-87
2023/05/06 01:23:59;;;;;;;;;;;10.20;99.90;;;;;;5079251;28;19943;-88
2023/05/06 01:26:25;;;;;;;;;;;10.30;99.90;;;;;;5048473;28;19924;-87
2023/05/06 01:28:51;;;;;;;;;;;10.30;99.90;;;;;;5071084;28;19925;-88
2023/05/06 01:31:30;;;;;;;;;;;10.30;99.90;;;;;;5064383;28;19925;-87
2023/05/06 01:33:56;;;;;;;;;;;10.30;99.90;;;;;;5056577;28;19924;-87
2023/05/06 01:36:26;;;;;;;;;;;10.40;99.90;;;;;;5051351;28;20386;-88
2023/05/06 01:39:00;;;;;;;;;;;10.40;99.90;;;;;;5054427;28;20399;-86
2023/05/06 01:41:26;;;;;;;;;;;10.50;99.90;;;;;;5080981;28;19920;-87
2023/05/06 01:43:52;;;;;;;;;;;10.50;99.90;;;;;;5083428;28;19986;-87
2023/05/06 01:46:18;;;;;;;;;;;10.60;99.90;;;;;;5061956;28;19991;-88
2023/05/06 01:48:44;;;;;;;;;;;10.60;99.90;;;;;;5053728;28;19982;-87
2023/05/06 01:51:10;;;;;;;;;;;10.60;99.90;;;;;;5060874;28;19924;-87
2023/05/06 01:53:36;;;;;;;;;;;10.60;99.90;;;;;;5057243;28;19924;-87
2023/05/06 01:56:02;;;;;;;;;;;10.60;99.90;;;;;;5058301;28;19949;-87
2023/05/06 01:58:27;;;;;;;;;;;10.50;99.90;;;;;;5057548;28;19950;-87
2023/05/06 02:00:53;;;;;;;;;;;10.40;99.90;;;;;;5071161;28;19925;-87
2023/05/06 02:03:19;;;;;;;;;;;10.30;99.90;;;;;;5069886;28;20354;-87
2023/05/06 02:05:44;;;;;;;;;;;10.10;99.90;;;;;;5061842;28;19924;-86
2023/05/06 02:08:12;;;;;;;;;;;10.00;99.90;;;;;;5086157;28;20023;-87
2023/05/06 02:10:41;;;;;;;;;;;10.00;99.90;;;;;;5058370;28;20069;-88
2023/05/06 02:13:08;;;;;;;;;;;9.90;99.90;;;;;;5073899;28;19963;-88
2023/05/06 02:15:34;;;;;;;;;;;9.80;99.90;;;;;;5058441;28;19946;-85
2023/05/06 02:18:00;;;;;;;;;;;9.80;99.90;;;;;;5086437;28;19921;-85
2023/05/06 02:20:26;;;;;;;;;;;9.70;99.90;;;;;;5058539;28;19925;-87
2023/05/06 02:22:51;;;;;;;;;;;9.70;99.90;;;;;;5053657;28;19924;-87
2023/05/06 02:25:17;;;;;;;;;;;9.60;99.90;;;;;;5061516;28;19928;-86
2023/05/06 02:27:43;;;;;;;;;;;9.60;99.90;;;;;;5055169;28;19928;-87
2023/05/06 02:30:09;;;;;;;;;;;9.50;99.90;;;;;;5051805;28;19978;-86
2023/05/06 02:32:35;;;;;;;;;;;9.50;99.90;;;;;;5068886;28;19967;-86
2023/05/06 02:35:01;;;;;;;;;;;9.50;99.90;;;;;;5056282;28;19931;-87
2023/05/06 02:37:26;;;;;;;;;;;9.50;99.90;;;;;;5036672;28;19970;-86
2023/05/06 02:39:52;;;;;;;;;;;9.50;99.90;;;;;;5058379;28;19920;-87
2023/05/06 02:42:18;;;;;;;;;;;9.50;99.90;;;;;;5077140;28;19929;-87
2023/05/06 02:44:49;;;;;;;;;;;9.40;99.90;;;;;;5073813;28;19927;-86
2023/05/06 02:47:15;;;;;;;;;;;9.40;99.90;;;;;;5052641;28;20011;-86
2023/05/06 02:49:40;;;;;;;;;;;9.40;99.90;;;;;;5043849;28;20018;-86
2023/05/06 02:52:06;;;;;;;;;;;9.30;99.90;;;;;;5061055;28;20263;-86
2023/05/06 02:54:32;;;;;;;;;;;9.30;99.90;;;;;;5063536;28;20472;-86
2023/05/06 02:56:57;;;;;;;;;;;9.30;99.90;;;;;;5071426;28;19920;-86
2023/05/06 02:59:23;;;;;;;;;;;9.30;99.90;;;;;;5050263;28;19930;-87
2023/05/06 03:01:48;;;;;;;;;;;9.30;99.90;;;;;;5085412;28;20350;-87
2023/05/06 03:04:14;;;;;;;;;;;9.30;99.90;;;;;;5050468;28;19973;-87
2023/05/06 03:06:39;;;;;;;;;;;9.20;99.90;;;;;;5072304;28;19965;-87
2023/05/06 03:09:05;;;;;;;;;;;9.20;99.90;;;;;;5042818;28;19943;-86
2023/05/06 03:11:31;;;;;;;;;;;9.20;99.90;;;;;;5056418;28;19924;-87
2023/05/06 03:13:57;;;;;;;;;;;9.10;99.90;;;;;;5041336;28;19951;-87
2023/05/06 03:16:23;;;;;;;;;;;9.10;99.90;;;;;;5051823;28;20434;-87
2023/05/06 03:18:48;;;;;;;;;;;9.00;99.90;;;;;;5066737;28;19924;-86
2023/05/06 03:21:14;;;;;;;;;;;9.00;99.90;;;;;;5050006;28;19950;-86
2023/05/06 03:23:40;;;;;;;;;;;8.90;99.90;;;;;;5062177;28;19927;-86
2023/05/06 03:26:05;;;;;;;;;;;8.90;99.90;;;;;;5070349;28;19993;-86
2023/05/06 03:28:31;;;;;;;;;;;8.90;99.90;;;;;;5057213;28;19931;-87
2023/05/06 03:30:56;;;;;;;;;;;8.90;99.90;;;;;;5068607;28;19986;-87
2023/05/06 03:33:22;;;;;;;;;;;8.90;99.90;;;;;;5062730;28;19921;-87
2023/05/06 03:35:48;;;;;;;;;;;8.80;99.90;;;;;;5053231;28;19920;-87
2023/05/06 03:38:13;;;;;;;;;;;8.80;99.90;;;;;;5062988;28;19971;-87
2023/05/06 03:40:39;;;;;;;;;;;8.80;99.90;;;;;;5065460;28;19921;-87
2023/05/06 03:43:04;;;;;;;;;;;8.70;99.90;;;;;;5037930;28;20394;-88
2023/05/06 03:45:30;;;;;;;;;;;8.60;99.90;;;;;;5067649;28;20381;-87
2023/05/06 03:47:55;;;;;;;;;;;8.60;99.90;;;;;;5045088;28;19950;-87
2023/05/06 03:50:21;;;;;;;;;;;8.50;99.90;;;;;;5054038;28;19932;-88
2023/05/06 03:52:47;;;;;;;;;;;8.50;99.90;;;;;;5078317;28;19952;-86
2023/05/06 03:55:15;;;;;;;;;;;8.50;99.90;;;;;;5053497;28;20547;-87
2023/05/06 03:57:40;;;;;;;;;;;8.50;99.90;;;;;;5051920;28;19967;-87
2023/05/06 04:00:06;;;;;;;;;;;8.50;99.90;;;;;;5056656;28;19968;-86
2023/05/06 04:02:33;;;;;;;;;;;8.40;99.90;;;;;;5074527;28;20401;-87
2023/05/06 04:04:59;;;;;;;;;;;8.40;99.90;;;;;;5056062;28;19921;-87
2023/05/06 04:07:25;;;;;;;;;;;8.40;99.90;;;;;;5061938;28;19973;-89
2023/05/06 04:09:50;;;;;;;;;;;8.40;99.90;;;;;;5068542;28;20034;-87
2023/05/06 04:12:16;;;;;;;;;;;8.40;99.90;;;;;;5032209;28;20285;-88
2023/05/06 04:14:41;;;;;;;;;;;8.40;99.90;;;;;;5077357;28;19956;-86
2023/05/06 04:17:07;;;;;;;;;;;8.40;99.90;;;;;;5067497;28;20296;-87
2023/05/06 04:19:32;;;;;;;;;;;8.40;99.90;;;;;;5065889;28;19931;-87
2023/05/06 04:21:58;;;;;;;;;;;8.40;99.90;;;;;;5067292;28;20370;-87
2023/05/06 04:24:23;;;;;;;;;;;8.30;99.90;;;;;;5063005;28;19920;-87
2023/05/06 04:26:50;;;;;;;;;;;8.30;99.90;;;;;;5056585;28;19920;-86
2023/05/06 04:29:15;;;;;;;;;;;8.30;99.90;;;;;;5066148;28;19977;-87
2023/05/06 04:31:41;;;;;;;;;;;8.30;99.90;;;;;;5034317;28;20007;-88
2023/05/06 04:34:06;;;;;;;;;;;8.40;99.90;;;;;;5041925;28;19924;-87
2023/05/06 04:36:32;;;;;;;;;;;8.40;99.90;;;;;;5075799;28;19973;-87
2023/05/06 04:38:58;;;;;;;;;;;8.40;99.90;;;;;;5069739;28;19928;-87
2023/05/06 04:41:24;;;;;;;;;;;8.40;99.90;;;;;;5069554;28;19928;-88
2023/05/06 04:43:50;;;;;;;;;;;8.40;99.90;;;;;;5079615;28;19936;-88
2023/05/06 04:46:16;;;;;;;;;;;8.40;99.90;;;;;;5082922;28;19920;-87
2023/05/06 04:48:41;;;;;;;;;;;8.40;99.90;;;;;;5067199;28;20998;-86
2023/05/06 04:51:08;;;;;;;;;;;8.40;99.90;;;;;;5043579;28;19920;-86
2023/05/06 04:53:33;;;;;;;;;;;8.40;99.90;;;;;;5064127;28;19929;-85
2023/05/06 04:55:59;;;;;;;;;;;8.50;99.90;;;;;;5063564;28;19928;-86
2023/05/06 04:58:25;;;;;;;;;;;8.50;99.90;;;;;;5062639;28;19935;-85
2023/05/06 05:00:50;;;;;;;;;;;8.50;99.90;;;;;;5059077;28;20554;-87
2023/05/06 05:03:16;;;;;;;;;;;8.60;99.90;;;;;;5068952;28;19924;-89
2023/05/06 05:05:41;;;;;;;;;;;8.60;99.90;;;;;;5066151;28;20269;-87
2023/05/06 05:08:08;;;;;;;;;;;8.70;99.90;;;;;;5056084;28;19921;-88
2023/05/06 05:10:33;;;;;;;;;;;8.80;99.90;;;;;;5062533;28;19998;-87
2023/05/06 05:12:59;;;;;;;;;;;9.00;99.90;;;;;;5044908;28;20370;-87
2023/05/06 05:15:24;;;;;;;;;;;9.40;99.90;;;;;;5050362;28;19924;-87
2023/05/06 05:17:50;;;;;;;;;;;9.00;99.90;;;;;;5088353;28;19921;-87
2023/05/06 05:20:16;;;;;;;;;;;9.10;99.90;;;;;;5055644;28;19924;-87
2023/05/06 05:22:41;;;;;;;;;;;9.20;99.90;;;;;;5055678;28;19983;-87
2023/05/06 05:25:07;;;;;;;;;;;9.30;99.90;;;;;;5056803;28;19966;-87
2023/05/06 05:27:33;;;;;;;;;;;9.40;99.90;;;;;;5075654;28;20010;-87
2023/05/06 05:29:59;;;;;;;;;;;9.40;99.90;;;;;;5068804;28;19924;-88
2023/05/06 05:32:25;;;;;;;;;;;9.50;99.90;;;;;;5057654;28;19924;-87
2023/05/06 05:34:51;;;;;;;;;;;9.50;99.90;;;;;;5086208;28;19947;-88
2023/05/06 05:37:16;;;;;;;;;;;9.60;99.90;;;;;;5053673;28;19931;-89
2023/05/06 05:39:42;;;;;;;;;;;9.70;99.90;;;;;;5051692;28;19921;-88
2023/05/06 05:42:08;;;;;;;;;;;9.80;99.90;;;;;;5046497;28;19924;-88
2023/05/06 05:44:33;;;;;;;;;;;9.90;99.90;;;;;;5063666;28;19931;-87
2023/05/06 05:46:59;;;;;;;;;;;10.00;99.90;;;;;;5086199;28;19920;-86
2023/05/06 05:49:24;;;;;;;;;;;10.10;99.90;;;;;;5071874;28;19924;-86
2023/05/06 05:51:50;;;;;;;;;;;10.10;99.90;;;;;;5072712;28;20020;-86
2023/05/06 05:54:16;;;;;;;;;;;10.10;99.90;;;;;;5073220;28;19928;-87
2023/05/06 05:56:41;;;;;;;;;;;10.20;99.90;;;;;;5053923;28;19946;-88
2023/05/06 05:59:07;;;;;;;;;;;10.30;99.90;;;;;;5065997;28;20361;-87
2023/05/06 06:01:32;;;;;;;;;;;10.30;99.90;;;;;;5051755;28;20370;-87
2023/05/06 06:03:58;;;;;;;;;;;10.40;99.90;;;;;;5068069;28;19952;-87
2023/05/06 06:06:24;;;;;;;;;;;10.50;99.90;;;;;;5074291;28;19924;-89
2023/05/06 06:08:49;;;;;;;;;;;10.70;99.90;;;;;;5087223;28;19931;-88
2023/05/06 06:11:15;;;;;;;;;;;10.90;99.90;;;;;;5073537;28;19924;-86
2023/05/06 06:13:41;;;;;;;;;;;11.20;99.90;;;;;;5058880;28;19921;-87
2023/05/06 06:16:07;;;;;;;;;;;11.40;99.90;;;;;;5072883;28;19924;-89
2023/05/06 06:18:32;;;;;;;;;;;11.60;99.90;;;;;;5071997;28;19928;-87
2023/05/06 06:21:00;;;;;;;;;;;11.80;99.90;;;;;;5053726;28;19925;-87
2023/05/06 06:23:26;;;;;;;;;;;12.00;99.90;;;;;;5055423;28;19966;-86
2023/05/06 06:25:52;;;;;;;;;;;12.10;99.90;;;;;;5058442;28;19924;-88
2023/05/06 06:28:17;;;;;;;;;;;12.20;99.90;;;;;;5079430;28;19927;-88
2023/05/06 06:30:43;;;;;;;;;;;12.30;99.90;;;;;;5059039;28;19928;-89
2023/05/06 06:33:09;;;;;;;;;;;12.50;99.90;;;;;;5071453;28;19920;-89
2023/05/06 06:35:34;;;;;;;;;;;12.90;99.90;;;;;;5060721;28;19947;-89
2023/05/06 06:38:01;;;;;;;;;;;12.80;99.90;;;;;;5057369;28;19928;-88
2023/05/06 06:40:27;;;;;;;;;;;13.00;99.90;;;;;;5051365;28;19993;-89
2023/05/06 06:42:53;;;;;;;;;;;13.20;99.90;;;;;;5077165;28;20354;-87
2023/05/06 06:45:19;;;;;;;;;;;13.30;99.90;;;;;;5072885;28;19951;-88
2023/05/06 06:47:44;;;;;;;;;;;13.60;99.90;;;;;;5069749;28;19924;-91
2023/05/06 06:50:10;;;;;;;;;;;13.80;99.90;;;;;;5056148;28;19964;-89
2023/05/06 06:52:36;;;;;;;;;;;13.80;99.90;;;;;;5055193;28;19974;-91
2023/05/06 06:55:02;;;;;;;;;;;13.80;99.90;;;;;;5078274;28;19974;-88
2023/05/06 06:57:27;;;;;;;;;;;13.80;99.90;;;;;;5054189;28;19920;-85
2023/05/06 06:59:54;;;;;;;;;;;13.90;99.90;;;;;;5056884;28;19925;-87
2023/05/06 07:02:20;;;;;;;;;;;13.80;99.90;;;;;;5069291;28;20290;-85
2023/05/06 07:04:45;;;;;;;;;;;13.80;99.90;;;;;;5070390;28;19927;-86
2023/05/06 07:07:11;;;;;;;;;;;13.90;99.90;;;;;;5069157;28;20341;-86
2023/05/06 07:09:38;;;;;;;;;;;13.80;99.90;;;;;;5069702;28;19925;-84
2023/05/06 07:12:05;;;;;;;;;;;13.80;99.90;;;;;;5085128;28;21292;-84
2023/05/06 07:14:31;;;;;;;;;;;14.00;99.90;;;;;;5070402;28;19999;-93
2023/05/06 07:16:56;;;;;;;;;;;14.00;99.90;;;;;;5084275;28;20401;-91
2023/05/06 07:19:22;;;;;;;;;;;14.20;99.90;;;;;;5073920;28;19978;-93
2023/05/06 07:21:47;;;;;;;;;;;14.50;99.90;;;;;;5062020;28;19924;-91
2023/05/06 07:24:13;;;;;;;;;;;14.80;99.90;;;;;;5082109;28;20230;-87
2023/05/06 07:26:38;;;;;;;;;;;14.90;99.90;;;;;;5069070;28;19925;-91
2023/05/06 07:29:04;;;;;;;;;;;14.80;99.90;;;;;;5054775;28;19947;-91
2023/05/06 07:31:33;;;;;;;;;;;14.90;99.90;;;;;;5036439;28;20004;-94
2023/05/06 07:33:59;;;;;;;;;;;14.90;99.90;;;;;;5083188;28;19927;-91
2023/05/06 07:36:25;;;;;;;;;;;14.80;99.90;;;;;;5072664;28;19924;-89
2023/05/06 07:38:51;;;;;;;;;;;14.70;99.90;;;;;;5051044;28;20061;-88
2023/05/06 07:41:22;;;;;;;;;;;14.80;99.90;;;;;;5059453;28;20002;-88
2023/05/06 07:43:50;;;;;;;;;;;14.90;99.90;;;;;;5056412;28;20413;-88
2023/05/06 07:46:18;;;;;;;;;;;14.90;99.90;;;;;;5077460;28;19963;-88
2023/05/06 07:48:46;;;;;;;;;;;14.80;99.90;;;;;;5051372;28;19953;-88
2023/05/06 07:51:14;;;;;;;;;;;15.20;99.90;;;;;;5058059;28;19920;-88
2023/05/06 07:53:40;;;;;;;;;;;14.80;99.90;;;;;;5085259;28;19920;-87
2023/05/06 07:56:08;;;;;;;;;;;14.90;99.90;;;;;;5054453;28;19931;-87
2023/05/06 07:58:33;;;;;;;;;;;15.00;99.90;;;;;;5074543;28;20324;-88
2023/05/06 08:00:59;;;;;;;;;;;15.10;99.90;;;;;;5043144;28;19921;-88
2023/05/06 08:03:25;;;;;;;;;;;15.10;99.90;;;;;;5095114;28;19967;-88
2023/05/06 08:05:54;;;;;;;;;;;15.30;99.90;;;;;;5043503;28;20382;-88
2023/05/06 08:08:21;;;;;;;;;;;15.30;99.90;;;;;;5038779;28;20467;-88
2023/05/06 08:10:46;;;;;;;;;;;15.30;99.90;;;;;;5055113;28;19920;-88
2023/05/06 08:13:17;;;;;;;;;;;15.40;99.90;;;;;;5071186;28;19927;-87
2023/05/06 08:15:43;;;;;;;;;;;15.30;99.90;;;;;;5088223;28;19920;-87
2023/05/06 08:18:08;;;;;;;;;;;15.40;99.90;;;;;;5070646;28;20409;-87
2023/05/06 08:20:34;;;;;;;;;;;15.50;99.90;;;;;;5051301;28;19927;-88
2023/05/06 08:23:02;;;;;;;;;;;15.60;99.90;;;;;;5055225;28;20385;-87
2023/05/06 08:25:28;;;;;;;;;;;15.70;99.90;;;;;;5053880;28;19927;-87
2023/05/06 08:28:03;;;;;;;;;;;;;;;;;;;;;
2023/05/06 08:30:30;;;;;;;;;;;16.10;99.90;;;;;;5070284;28;19926;-90
2023/05/06 08:32:55;;;;;;;;;;;16.40;99.90;;;;;;5085045;28;20019;-90
2023/05/06 08:35:21;;;;;;;;;;;16.50;99.90;;;;;;5050806;28;19920;-86
2023/05/06 08:37:46;;;;;;;;;;;16.70;99.90;;;;;;5047078;28;19931;-85
2023/05/06 08:40:19;;;;;;;;;;;16.70;99.90;;;;;;5061536;28;19921;-86
2023/05/06 08:42:49;;;;;;;;;;;17.30;99.90;;;;;;5049229;28;19976;-86
2023/05/06 08:45:18;;;;;;;;;;;18.10;99.90;;;;;;5051274;28;20369;-87
2023/05/06 08:47:45;;;;;;;;;;;18.80;99.90;;;;;;5058174;28;20022;-86
2023/05/06 08:50:10;;;;;;;;;;;19.50;99.90;;;;;;5072816;28;19926;-88
2023/05/06 08:52:37;;;;;;;;;;;20.20;99.90;;;;;;5045002;28;19924;-86
2023/05/06 08:55:04;;;;;;;;;;;20.50;99.90;;;;;;5052688;28;19998;-87
2023/05/06 08:57:30;;;;;;;;;;;20.90;99.90;;;;;;5050011;28;19928;-87
2023/05/06 08:59:56;;;;;;;;;;;21.00;99.90;;;;;;5052528;28;20385;-88
2023/05/06 09:02:22;;;;;;;;;;;21.20;99.90;;;;;;5060241;28;20002;-87
2023/05/06 09:04:48;;;;;;;;;;;21.40;99.90;;;;;;5056639;28;19925;-87
2023/05/06 09:07:13;;;;;;;;;;;21.70;99.90;;;;;;5051344;28;20407;-87
2023/05/06 09:09:42;;;;;;;;;;;21.70;99.90;;;;;;5040252;28;19921;-86
2023/05/06 09:12:09;;;;;;;;;;;21.90;99.90;;;;;;5050604;28;20016;-87
2023/05/06 09:14:34;;;;;;;;;;;22.10;99.90;;;;;;5051006;28;20657;-86
2023/05/06 09:17:00;;;;;;;;;;;22.40;99.90;;;;;;5070544;28;19978;-86
2023/05/06 09:19:25;;;;;;;;;;;22.60;16.00;;;;;;5039174;28;20255;-85
2023/05/06 09:21:51;;;;;;;;;;;22.90;99.90;;;;;;5051181;28;19933;-87
2023/05/06 09:24:17;;;;;;;;;;;23.20;99.90;;;;;;5039069;28;20397;-85
2023/05/06 09:26:44;;;;;;;;;;;23.50;91.00;;;;;;5042824;28;20341;-84
2023/05/06 09:29:10;;;;;;;;;;;23.90;99.90;;;;;;5067791;28;19920;-85
2023/05/06 09:31:40;;;;;;;;;;;24.20;81.30;;;;;;5048977;28;20484;-85
2023/05/06 09:34:06;;;;;;;;;;;24.10;41.40;;;;;;5067883;28;19999;-84
2023/05/06 09:36:31;;;;;;;;;;;24.30;1.00;;;;;;5057711;28;20035;-85
2023/05/06 09:38:57;;;;;;;;;;;24.40;20.70;;;;;;5068848;28;19931;-84
2023/05/06 09:41:26;;;;;;;;;;;24.80;53.70;;;;;;5086647;28;19920;-85
2023/05/06 09:43:52;;;;;;;;;;;25.10;20.00;;;;;;5052339;28;19926;-85
2023/05/06 09:46:18;;;;;;;;;;;25.60;99.90;;;;;;5069476;28;19963;-88
2023/05/06 09:48:45;;;;;;;;;;;25.60;99.90;;;;;;5072878;28;19924;-85
2023/05/06 09:51:11;;;;;;;;;;;25.70;1.00;;;;;;5049374;28;19920;-84
2023/05/06 09:53:37;;;;;;;;;;;25.30;1.00;;;;;;5065186;28;19960;-85
2023/05/06 09:56:06;;;;;;;;;;;24.70;1.00;;;;;;5086600;28;19975;-85
2023/05/06 09:58:32;;;;;;;;;;;24.10;1.00;;;;;;5049447;28;20408;-85
2023/05/06 10:00:59;;;;;;;;;;;23.50;69.20;;;;;;5050935;28;20015;-87
2023/05/06 10:03:26;;;;;;;;;;;23.60;95.30;;;;;;5078594;28;19924;-90
2023/05/06 10:05:53;;;;;;;;;;;24.40;53.20;;;;;;5068312;28;19924;-89
2023/05/06 10:08:23;;;;;;;;;;;25.30;1.00;;;;;;5059149;28;19932;-89
2023/05/06 10:10:52;;;;;;;;;;;25.30;1.00;;;;;;5055205;28;19924;-87
2023/05/06 10:13:23;;;;;;;;;;;24.50;19.60;;;;;;5051064;28;19924;-89
2023/05/06 10:15:49;;;;;;;;;;;23.50;1.00;;;;;;5067000;28;20385;-85
2023/05/06 10:18:15;;;;;;;;;;;22.90;45.50;;;;;;5078179;28;19931;-85
2023/05/06 10:20:42;;;;;;;;;;;22.40;43.90;;;;;;5054391;28;20389;-86
2023/05/06 10:23:25;;;;;;;;;;;21.80;99.90;;;;;;5061159;28;20050;-86
2023/05/06 10:26:05;;;;;;;;;;;21.40;99.90;;;;;;5064023;28;19931;-86
2023/05/06 10:28:32;;;;;;;;;;;21.10;99.90;;;;;;5071132;28;20302;-86
2023/05/06 10:30:57;;;;;;;;;;;21.10;99.90;;;;;;5084915;28;19924;-89
2023/05/06 10:33:24;;;;;;;;;;;21.20;93.10;;;;;;5056406;28;19966;-91
2023/05/06 10:35:54;;;;;;;;;;;21.20;65.30;;;;;;5033929;28;20015;-91
2023/05/06 10:38:28;;;;;;;;;;;21.20;90.00;;;;;;5069233;28;19920;-91
2023/05/06 10:40:58;;;;;;;;;;;22.40;99.90;;;;;;5051120;28;19958;-90
2023/05/06 10:43:28;;;;;;;;;;;23.30;99.90;;;;;;5037304;28;19982;-88
2023/05/06 10:45:58;;;;;;;;;;;23.40;61.40;;;;;;5046940;28;20002;-90
2023/05/06 10:48:23;;;;;;;;;;;24.20;99.20;;;;;;5048133;28;20401;-88
2023/05/06 10:50:49;;;;;;;;;;;25.60;87.80;;;;;;5054105;28;19975;-88
2023/05/06 10:53:38;;;;;;;;;;;26.70;1.00;;;;;;5066450;28;19924;-89
2023/05/06 10:56:08;;;;;;;;;;;27.60;1.00;;;;;;5077492;28;20423;-89
2023/05/06 10:58:34;;;;;;;;;;;28.20;99.90;;;;;;5068557;28;19924;-89
2023/05/06 11:01:01;;;;;;;;;;;28.30;99.90;;;;;;5052577;28;19924;-89
2023/05/06 11:03:26;;;;;;;;;;;28.50;99.90;;;;;;5086502;28;19921;-91
2023/05/06 11:05:52;;;;;;;;;;;28.80;99.90;;;;;;5072386;28;19943;-91
2023/05/06 11:08:22;;;;;;;;;;;28.30;99.90;;;;;;5071626;28;19926;-90
2023/05/06 11:10:47;;;;;;;;;;;26.90;1.00;;;;;;5069589;28;19920;-90
2023/05/06 11:13:23;;;;;;;;;;;25.60;1.00;;;;;;5071494;28;19924;-90
2023/05/06 11:15:50;;;;;;;;;;;24.60;99.90;;;;;;5053031;28;19920;-89
2023/05/06 11:18:30;;;;;;;;;;;23.60;56.10;;;;;;5070879;28;19920;-89
2023/05/06 11:21:02;;;;;;;;;;;22.90;99.90;;;;;;5069210;28;19931;-89
2023/05/06 11:23:40;;;;;;;;;;;22.20;99.90;;;;;;5074221;28;19920;-89
2023/05/06 11:26:06;;;;;;;;;;;21.80;99.90;;;;;;5059016;28;19935;-89
2023/05/06 11:28:33;;;;;;;;;;;21.40;1.00;;;;;;5097086;28;19947;-89
2023/05/06 11:30:59;;;;;;;;;;;21.10;1.00;;;;;;5059466;28;20011;-89
2023/05/06 11:33:26;;;;;;;;;;;20.90;1.00;;;;;;5073492;28;20019;-90
2023/05/06 11:35:52;;;;;;;;;;;20.80;1.00;;;;;;5077751;28;19946;-89
2023/05/06 11:38:17;;;;;;;;;;;20.60;1.00;;;;;;5076973;28;19928;-89
2023/05/06 11:40:43;;;;;;;;;;;20.50;1.00;;;;;;5031248;28;19928;-90
2023/05/06 11:43:09;;;;;;;;;;;20.30;1.00;;;;;;5066010;28;19921;-90
2023/05/06 11:45:39;;;;;;;;;;;20.00;1.00;;;;;;5072903;28;19988;-89
2023/05/06 11:48:05;;;;;;;;;;;19.70;1.00;;;;;;5055636;28;19928;-89
2023/05/06 11:50:31;;;;;;;;;;;19.60;1.00;;;;;;5055646;28;19920;-89
2023/05/06 11:52:57;;;;;;;;;;;19.80;1.00;;;;;;5072676;28;19916;-89
2023/05/06 11:55:22;;;;;;;;;;;20.00;99.90;;;;;;5053681;28;19924;-88
2023/05/06 11:57:48;;;;;;;;;;;20.30;99.90;;;;;;5087741;28;19925;-89
2023/05/06 12:00:14;;;;;;;;;;;20.70;1.00;;;;;;5053986;28;19921;-89
2023/05/06 12:02:40;;;;;;;;;;;21.10;99.90;;;;;;5072113;28;19998;-89
2023/05/06 12:05:06;;;;;;;;;;;22.30;1.00;;;;;;5035464;28;19928;-88
2023/05/06 12:07:32;;;;;;;;;;;24.10;1.00;;;;;;5043469;28;19926;-90
2023/05/06 12:09:58;;;;;;;;;;;25.80;99.90;;;;;;5047322;28;19920;-90
2023/05/06 12:12:23;;;;;;;;;;;27.10;6.30;;;;;;5053911;28;20405;-89
2023/05/06 12:14:50;;;;;;;;;;;28.10;99.90;;;;;;5067176;28;19931;-90
2023/05/06 12:17:16;;;;;;;;;;;29.00;1.00;;;;;;5052220;28;19954;-90
2023/05/06 12:19:42;;;;;;;;;;;29.90;1.00;;;;;;5052485;28;20335;-90
2023/05/06 12:22:21;;;;;;;;;;;30.50;1.00;;;;;;5070483;28;19920;-89
2023/05/06 12:24:47;;;;;;;;;;;30.80;1.00;;;;;;5086049;28;20283;-89
2023/05/06 12:27:13;;;;;;;;;;;30.20;1.00;;;;;;5052827;28;19943;-89
2023/05/06 12:29:38;;;;;;;;;;;29.50;1.00;;;;;;5051966;28;20354;-89
2023/05/06 12:32:08;;;;;;;;;;;29.40;1.00;;;;;;5049438;28;19928;-89
2023/05/06 12:34:37;;;;;;;;;;;29.70;1.00;;;;;;5051477;28;19925;-89
2023/05/06 12:37:07;;;;;;;;;;;29.20;1.00;;;;;;5034534;28;19920;-87
2023/05/06 12:39:33;;;;;;;;;;;28.30;1.00;;;;;;5051324;28;19951;-88
2023/05/06 12:41:59;;;;;;;;;;;27.30;1.00;;;;;;5050044;28;19932;-89
2023/05/06 12:44:32;;;;;;;;;;;27.20;1.00;;;;;;5066327;28;20381;-88
2023/05/06 12:47:00;;;;;;;;;;;27.60;1.00;;;;;;5047750;28;19974;-87
2023/05/06 12:49:26;;;;;;;;;;;27.60;1.00;;;;;;5067351;28;20007;-88
2023/05/06 12:52:08;;;;;;;;;;;27.20;1.00;;;;;;5050555;28;20015;-85
2023/05/06 12:54:34;;;;;;;;;;;26.70;1.00;;;;;;5051750;28;19920;-87
2023/05/06 12:57:01;;;;;;;;;;;26.00;1.00;;;;;;5083412;28;19967;-87
2023/05/06 12:59:26;;;;;;;;;;;25.30;1.00;;;;;;5030577;28;19927;-87
2023/05/06 13:01:52;;;;;;;;;;;24.80;1.00;;;;;;5050479;28;19920;-88
2023/05/06 13:04:17;;;;;;;;;;;24.30;1.00;;;;;;5035936;28;19921;-88
2023/05/06 13:06:43;;;;;;;;;;;23.80;1.00;;;;;;5053803;28;19928;-88
2023/05/06 13:09:09;;;;;;;;;;;23.50;1.00;;;;;;5072324;28;19916;-88
2023/05/06 13:11:35;;;;;;;;;;;23.10;1.00;;;;;;5071518;28;19924;-92
2023/05/06 13:14:00;;;;;;;;;;;22.60;1.00;;;;;;5073879;28;19920;-91
2023/05/06 13:16:27;;;;;;;;;;;22.00;1.00;;;;;;5068303;28;19966;-89
2023/05/06 13:18:52;;;;;;;;;;;21.80;1.00;;;;;;5065885;28;20396;-88
2023/05/06 13:21:18;;;;;;;;;;;21.90;1.00;;;;;;5049053;28;19925;-87
2023/05/06 13:23:46;;;;;;;;;;;22.20;1.00;;;;;;5067065;28;19928;-88
2023/05/06 13:26:12;;;;;;;;;;;22.10;1.00;;;;;;5055229;28;19916;-84
2023/05/06 13:28:38;;;;;;;;;;;21.60;1.00;;;;;;5068631;28;19921;-84
2023/05/06 13:31:04;;;;;;;;;;;21.00;1.00;;;;;;5034617;28;20259;-85
2023/05/06 13:33:30;;;;;;;;;;;20.50;1.00;;;;;;5069071;28;20392;-86
2023/05/06 13:35:55;;;;;;;;;;;19.80;1.00;;;;;;5065480;28;19932;-86
2023/05/06 13:38:21;;;;;;;;;;;19.30;1.00;;;;;;5052771;28;20341;-85
2023/05/06 13:40:49;;;;;;;;;;;18.60;1.00;;;;;;5052709;28;20443;-85
2023/05/06 13:43:14;;;;;;;;;;;18.20;1.00;;;;;;5063439;28;19947;-86
2023/05/06 13:45:40;;;;;;;;;;;17.80;1.00;;;;;;5068662;28;19924;-85
2023/05/06 13:48:05;;;;;;;;;;;17.60;70.70;;;;;;5063313;28;20255;-85
2023/05/06 13:50:31;;;;;;;;;;;17.50;99.90;;;;;;5051688;28;19928;-85
2023/05/06 13:52:56;;;;;;;;;;;17.40;99.90;;;;;;5063601;28;19947;-87
2023/05/06 13:55:22;;;;;;;;;;;17.40;99.90;;;;;;5067782;28;19928;-85
2023/05/06 13:57:48;;;;;;;;;;;17.30;1.00;;;;;;5064230;28;20425;-85
2023/05/06 14:00:14;;;;;;;;;;;17.20;1.00;;;;;;5058221;28;19930;-85
2023/05/06 14:02:39;;;;;;;;;;;17.10;1.00;;;;;;5054516;28;19933;-85
2023/05/06 14:05:05;;;;;;;;;;;17.00;1.00;;;;;;5069256;28;19988;-85
2023/05/06 14:07:31;;;;;;;;;;;16.90;1.00;;;;;;5062137;28;19942;-86
2023/05/06 14:09:57;;;;;;;;;;;16.80;1.00;;;;;;5088273;28;19925;-86
2023/05/06 14:12:23;;;;;;;;;;;16.70;1.00;;;;;;5035709;28;19996;-86
2023/05/06 14:14:49;;;;;;;;;;;16.60;1.00;;;;;;5068147;28;20969;-85
2023/05/06 14:17:14;;;;;;;;;;;16.40;1.00;;;;;;5055165;28;19920;-85
2023/05/06 14:19:40;;;;;;;;;;;16.20;56.50;;;;;;5071191;28;20373;-85